地図

経路データ

SID SEASON NUMBER BASIN SUBBASIN NAME ISO_TIME NATURE LAT LON WMO_WIND WMO_PRES WMO_AGENCY TRACK_TYPE DIST2LAND LANDFALL IFLAG USA_AGENCY USA_ATCF_ID USA_LAT USA_LON USA_RECORD USA_STATUS USA_WIND USA_PRES USA_SSHS USA_R34_NE USA_R34_SE USA_R34_SW USA_R34_NW USA_R50_NE USA_R50_SE USA_R50_SW USA_R50_NW USA_R64_NE USA_R64_SE USA_R64_SW USA_R64_NW USA_POCI USA_ROCI USA_RMW USA_EYE TOKYO_LAT TOKYO_LON TOKYO_GRADE TOKYO_WIND TOKYO_PRES TOKYO_R50_DIR TOKYO_R50_LONG TOKYO_R50_SHORT TOKYO_R30_DIR TOKYO_R30_LONG TOKYO_R30_SHORT TOKYO_LAND CMA_LAT CMA_LON CMA_CAT CMA_WIND CMA_PRES HKO_LAT HKO_LON HKO_CAT HKO_WIND HKO_PRES NEWDELHI_LAT NEWDELHI_LON NEWDELHI_GRADE NEWDELHI_WIND NEWDELHI_PRES NEWDELHI_CI NEWDELHI_DP NEWDELHI_POCI REUNION_LAT REUNION_LON REUNION_TYPE REUNION_WIND REUNION_PRES REUNION_TNUM REUNION_CI REUNION_RMW REUNION_R34_NE REUNION_R34_SE REUNION_R34_SW REUNION_R34_NW REUNION_R50_NE REUNION_R50_SE REUNION_R50_SW REUNION_R50_NW REUNION_R64_NE REUNION_R64_SE REUNION_R64_SW REUNION_R64_NW BOM_LAT BOM_LON BOM_TYPE BOM_WIND BOM_PRES BOM_TNUM BOM_CI BOM_RMW BOM_R34_NE BOM_R34_SE BOM_R34_SW BOM_R34_NW BOM_R50_NE BOM_R50_SE BOM_R50_SW BOM_R50_NW BOM_R64_NE BOM_R64_SE BOM_R64_SW BOM_R64_NW BOM_ROCI BOM_POCI BOM_EYE BOM_POS_METHOD BOM_PRES_METHOD NADI_LAT NADI_LON NADI_CAT NADI_WIND NADI_PRES WELLINGTON_LAT WELLINGTON_LON WELLINGTON_WIND WELLINGTON_PRES DS824_LAT DS824_LON DS824_STAGE DS824_WIND DS824_PRES TD9636_LAT TD9636_LON TD9636_STAGE TD9636_WIND TD9636_PRES TD9635_LAT TD9635_LON TD9635_WIND TD9635_PRES TD9635_ROCI NEUMANN_LAT NEUMANN_LON NEUMANN_CLASS NEUMANN_WIND NEUMANN_PRES MLC_LAT MLC_LON MLC_CLASS MLC_WIND MLC_PRES USA_GUST BOM_GUST BOM_GUST_PER REUNION_GUST REUNION_GUST_PER USA_SEAHGT USA_SEARAD_NE USA_SEARAD_SE USA_SEARAD_SW USA_SEARAD_NW STORM_SPEED STORM_DIR
1944279N20134 1944 68 WP MM NOT_NAMED 1944-10-04 21:00:00 NR 20.0000 134.000 main 1227 1214 __________O___ -1 20.0000 134.000 2 9 322
1944279N20134 1944 68 WP MM NOT_NAMED 1944-10-05 00:00:00 NR 20.3427 133.714 main 1214 1183 __________P___ -1 20.3427 133.714 2 9 324
1944279N20134 1944 68 WP MM NOT_NAMED 1944-10-05 03:00:00 NR 20.6980 133.462 main 1183 1135 __________P___ -1 20.6980 133.462 2 8 331
1944279N20134 1944 68 WP MM NOT_NAMED 1944-10-05 06:00:00 NR 21.0793 133.279 main 1135 1089 __________P___ -1 21.0793 133.279 2 8 343
1944279N20134 1944 68 WP MM NOT_NAMED 1944-10-05 09:00:00 NR 21.5000 133.200 main 1089 1046 __________O___ -1 21.5000 133.200 2 9 357
1944279N20134 1944 68 WP MM NOT_NAMED 1944-10-05 12:00:00 NR 21.9681 133.248 main 1035 997 __________P___ -1 21.9681 133.248 2 10 11
1944279N20134 1944 68 WP MM NOT_NAMED 1944-10-05 15:00:00 NR 22.4701 133.393 main 986 938 __________P___ -1 22.4701 133.393 2 11 17
1944279N20134 1944 68 WP MM NOT_NAMED 1944-10-05 18:00:00 NR 22.9870 133.592 main 938 891 __________P___ -1 22.9870 133.592 2 11 20
1944279N20134 1944 68 WP MM NOT_NAMED 1944-10-05 21:00:00 NR 23.5000 133.800 main 891 842 __________O___ -1 23.5000 133.800 2 11 18
1944279N20134 1944 68 WP MM NOT_NAMED 1944-10-06 00:00:00 NR 23.9943 133.950 main 846 798 __________P___ -1 23.9943 133.950 2 10 16
1944279N20134 1944 68 WP MM NOT_NAMED 1944-10-06 03:00:00 NR 24.4799 134.100 main 798 762 __________P___ -1 24.4799 134.100 2 10 16
1944279N20134 1944 68 WP MM NOT_NAMED 1944-10-06 06:00:00 NR 24.9506 134.250 main 757 722 __________P___ -1 24.9506 134.250 2 10 16
1944279N20134 1944 68 WP MM NOT_NAMED 1944-10-06 09:00:00 NR 25.4000 134.400 main 722 698 __________O___ -1 25.4000 134.400 4 8 20
1944279N20134 1944 68 WP MM NOT_NAMED 1944-10-06 12:00:00 NR 25.6675 134.537 main 698 684 __________P___ -1 25.6675 134.537 4 6 25
1944279N20134 1944 68 WP MM NOT_NAMED 1944-10-06 15:00:00 NR 25.9380 134.675 main 690 658 __________P___ -1 25.9380 134.675 4 7 21
1944279N20134 1944 68 WP MM NOT_NAMED 1944-10-06 18:00:00 NR 26.3395 134.825 main 658 602 __________P___ -1 26.3395 134.825 4 11 15
1944279N20134 1944 68 WP MM NOT_NAMED 1944-10-06 21:00:00 NR 27.0000 135.000 main 602 527 __________O___ -1 27.0000 135.000 4 18 11
1944279N20134 1944 68 WP MM NOT_NAMED 1944-10-07 00:00:00 NR 28.0736 135.205 main 519 442 __________P___ -1 28.0736 135.205 4 25 9
1944279N20134 1944 68 WP MM NOT_NAMED 1944-10-07 03:00:00 NR 29.4091 135.441 main 433 290 __________P___ -1 29.4091 135.441 4 29 9
1944279N20134 1944 68 WP MM NOT_NAMED 1944-10-07 06:00:00 NR 30.8898 135.707 main 278 124 __________P___ -1 30.8898 135.707 4 30 9
1944279N20134 1944 68 WP MM NOT_NAMED 1944-10-07 09:00:00 NR 32.4000 136.000 main 113 18 __________O___ -1 32.4000 136.000 4 29 10
1944279N20134 1944 68 WP MM NOT_NAMED 1944-10-07 12:00:00 NR 33.7546 136.277 main 21 0 __________P___ -1 33.7546 136.277 4 28 10
1944279N20134 1944 68 WP MM NOT_NAMED 1944-10-07 15:00:00 NR 35.1184 136.586 main 0 0 __________P___ -1 35.1184 136.586 4 28 11
1944279N20134 1944 68 WP MM NOT_NAMED 1944-10-07 18:00:00 NR 36.4980 136.952 main 0 0 __________P___ -1 36.4980 136.952 4 29 13
1944279N20134 1944 68 WP MM NOT_NAMED 1944-10-07 21:00:00 NR 37.9000 137.400 main 58 58 __________O___ -1 37.9000 137.400 4 30 15
1944279N20134 1944 68 WP MM NOT_NAMED 1944-10-08 00:00:00 NR 39.3395 137.935 main 158 117 __________P___ -1 39.3395 137.935 4 30 17
1944279N20134 1944 68 WP MM NOT_NAMED 1944-10-08 03:00:00 NR 40.7981 138.566 main 111 50 __________P___ -1 40.7981 138.566 4 31 19
1944279N20134 1944 68 WP MM NOT_NAMED 1944-10-08 06:00:00 NR 42.2577 139.290 main 40 24 __________P___ -1 42.2577 139.290 4 31 21
1944279N20134 1944 68 WP MM NOT_NAMED 1944-10-08 09:00:00 NR 43.7000 140.100 main 47 47 __________O___ -1 43.7000 140.100 7 32 24
1944279N20134 1944 68 WP MM NOT_NAMED 1944-10-08 12:00:00 NR 45.1867 141.107 main 39 0 __________P___ -1 45.1867 141.107 7 33 27
1944279N20134 1944 68 WP MM NOT_NAMED 1944-10-08 15:00:00 NR 46.6379 142.196 main 0 0 __________P___ -1 46.6379 142.196 7 32 28
1944279N20134 1944 68 WP MM NOT_NAMED 1944-10-08 18:00:00 NR 47.9941 143.241 main 51 13 __________P___ -1 47.9941 143.241 7 29 26
1944279N20134 1944 68 WP MM NOT_NAMED 1944-10-08 21:00:00 NR 49.2000 144.100 main 7 0 __________O___ -1 49.2000 144.100 7 24 24
1944279N20134 1944 68 WP MM NOT_NAMED 1944-10-09 00:00:00 NR 50.1933 144.709 main 57 57 __________P___ -1 50.1933 144.709 7 19 18
1944279N20134 1944 68 WP MM NOT_NAMED 1944-10-09 03:00:00 NR 51.0475 145.064 main 105 105 __________P___ -1 51.0475 145.064 7 17 10
1944279N20134 1944 68 WP MM NOT_NAMED 1944-10-09 06:00:00 NR 51.8286 145.161 main 127 114 __________P___ -1 51.8286 145.161 7 16 358
1944279N20134 1944 68 WP MM NOT_NAMED 1944-10-09 09:00:00 NR 52.6000 145.000 main 114 88 __________O___ -1 52.6000 145.000 7 16 348
1944279N20134 1944 68 WP MM NOT_NAMED 1944-10-09 12:00:00 NR 53.4106 144.588 main 92 65 __________P___ -1 53.4106 144.588 7 18 340
1944279N20134 1944 68 WP MM NOT_NAMED 1944-10-09 15:00:00 NR 54.2578 143.966 main 68 61 __________P___ -1 54.2578 143.966 7 19 334
1944279N20134 1944 68 WP MM NOT_NAMED 1944-10-09 18:00:00 NR 55.1259 143.184 main 92 92 __________P___ -1 55.1259 143.184 7 20 331
1944279N20134 1944 68 WP MM NOT_NAMED 1944-10-09 21:00:00 NR 56.0000 142.300 main 189 __________O___ -1 56.0000 142.300 7 20 331

デジタル台風データ・検索

IBTrACS Databaseについて

本データベースは、米国NOAAが公開する1842年以降の世界の熱帯低気圧のベストトラックデータアーカイブInternational Best Track Archive for Climate Stewardship (IBTrACS)を、ウェブで閲覧しやすい形式に変換したものです。

最終更新日:2021-12-03